Terminal Aerodrome Forecast
Issued by NWS

Home | Current Version | Previous Version | Graphics & Text | Print | Product List | Glossary On
Versions: 1 2 3 4 5 6 7 8 9 10 11 12 13 14 15 16 17 18 19 20 21
000
FTUS43 KICT 272331
TAFCNU
TAF
KCNU 272331Z 2800/2824 12005KT P6SM SCT035
     FM281000 14005KT P6SM VCTS BKN035CB
     FM281500 18012KT P6SM BKN120
     FM281800 18015G22KT P6SM VCTS SCT035 BKN120CB=

USA.gov is the U.S. government's official web portal to all federal, state and local government web resources and services.